createdAt,value
2022-11-16T00:00:57.082Z,9.47
2022-11-16T00:01:58.887Z,9.47
2022-11-16T00:03:00.558Z,9.47
2022-11-16T00:04:02.286Z,9.47
2022-11-16T00:05:04.012Z,9.47
2022-11-16T00:06:05.763Z,9.47
2022-11-16T00:07:07.632Z,9.47
2022-11-16T00:08:09.213Z,9.47
2022-11-16T00:09:10.947Z,9.47
2022-11-16T00:10:12.689Z,9.48
2022-11-16T00:11:14.423Z,9.48
2022-11-16T00:12:16.162Z,9.48
2022-11-16T00:13:17.894Z,9.47
2022-11-16T00:14:19.632Z,9.48
2022-11-16T00:15:21.365Z,9.48
2022-11-16T00:16:23.119Z,9.48
2022-11-16T00:17:24.835Z,9.47
2022-11-16T00:18:26.574Z,9.48
2022-11-16T00:19:28.296Z,9.48
2022-11-16T00:20:30.037Z,9.47
2022-11-16T00:21:31.760Z,9.48
2022-11-16T00:22:33.497Z,9.48
2022-11-16T00:23:35.233Z,9.47
2022-11-16T00:24:36.990Z,9.49
2022-11-16T00:25:38.698Z,9.49
2022-11-16T00:26:40.438Z,9.49
2022-11-16T00:27:42.176Z,9.49
2022-11-16T00:28:43.908Z,9.5
2022-11-16T00:29:45.639Z,9.48
2022-11-16T00:30:47.370Z,9.49
2022-11-16T00:31:49.125Z,9.48
2022-11-16T00:32:50.836Z,9.49
2022-11-16T00:33:52.566Z,9.48
2022-11-16T00:34:54.292Z,9.48
2022-11-16T00:35:56.070Z,9.47
2022-11-16T00:36:57.784Z,9.48
2022-11-16T00:37:59.543Z,9.47
2022-11-16T00:39:01.241Z,9.47
2022-11-16T00:40:02.978Z,9.46
2022-11-16T00:41:04.710Z,9.46
2022-11-16T00:42:06.457Z,9.45
2022-11-16T00:43:08.179Z,9.46
2022-11-16T00:44:09.999Z,9.45
2022-11-16T00:45:11.652Z,9.45
2022-11-16T00:46:13.392Z,9.45
2022-11-16T00:47:15.112Z,9.44
2022-11-16T00:48:16.853Z,9.43
2022-11-16T00:49:18.584Z,9.43
2022-11-16T00:50:20.303Z,9.43
2022-11-16T00:51:22.050Z,9.43
2022-11-16T00:52:23.774Z,9.42
2022-11-16T00:53:25.509Z,9.43
2022-11-16T00:54:27.253Z,9.42
2022-11-16T00:55:28.989Z,9.42
2022-11-16T00:56:30.719Z,9.42
2022-11-16T00:57:32.461Z,9.42
2022-11-16T00:58:34.629Z,9.41
2022-11-16T00:59:35.907Z,9.41
2022-11-16T01:00:37.650Z,9.41
2022-11-16T01:01:39.505Z,9.41
2022-11-16T01:02:41.135Z,9.41
2022-11-16T01:03:42.867Z,9.4
2022-11-16T01:04:44.604Z,9.4
2022-11-16T01:05:46.338Z,9.4
2022-11-16T01:06:48.142Z,9.4
2022-11-16T01:07:49.804Z,9.4
2022-11-16T01:08:51.538Z,9.41
2022-11-16T01:09:53.285Z,9.4
2022-11-16T01:10:55.005Z,9.4
2022-11-16T01:11:56.729Z,9.41
2022-11-16T01:12:58.468Z,9.41
2022-11-16T01:14:00.203Z,9.41
2022-11-16T01:15:01.938Z,9.41
2022-11-16T01:16:03.693Z,9.41
2022-11-16T01:17:05.417Z,9.42
2022-11-16T01:18:07.136Z,9.41
2022-11-16T01:19:08.889Z,9.42
2022-11-16T01:20:10.610Z,9.42
2022-11-16T01:21:12.353Z,9.42
2022-11-16T01:22:14.085Z,9.42
2022-11-16T01:23:15.809Z,9.42
2022-11-16T01:24:16.739Z,9.42
2022-11-16T01:25:19.298Z,9.43
2022-11-16T01:26:21.033Z,9.43
2022-11-16T01:27:22.767Z,9.43
2022-11-16T01:28:24.496Z,9.43
2022-11-16T01:29:26.237Z,9.43
2022-11-16T01:30:27.968Z,9.43
2022-11-16T01:31:29.741Z,9.43
2022-11-16T01:32:31.424Z,9.43
2022-11-16T01:33:33.184Z,9.44
2022-11-16T01:34:34.892Z,9.43
2022-11-16T01:35:36.639Z,9.43
2022-11-16T01:36:38.381Z,9.43
2022-11-16T01:37:40.099Z,9.43
2022-11-16T01:38:41.841Z,9.43
2022-11-16T01:39:43.564Z,9.43
2022-11-16T01:40:45.306Z,9.43
2022-11-16T01:41:47.053Z,9.43
2022-11-16T01:42:48.792Z,9.44
2022-11-16T01:43:50.511Z,9.44
2022-11-16T01:44:52.242Z,9.44
2022-11-16T01:45:53.976Z,9.43
2022-11-16T01:46:55.733Z,9.43
2022-11-16T01:47:57.475Z,9.44
2022-11-16T01:48:59.179Z,9.44
2022-11-16T01:50:00.904Z,9.43
2022-11-16T01:51:02.654Z,9.43
2022-11-16T01:52:04.389Z,9.43
2022-11-16T01:53:06.120Z,9.43
2022-11-16T01:54:07.850Z,9.43
2022-11-16T01:55:09.615Z,9.43
2022-11-16T01:56:11.315Z,9.43
2022-11-16T01:57:13.095Z,9.43
2022-11-16T01:58:14.784Z,9.43
2022-11-16T01:59:16.509Z,9.43
2022-11-16T02:00:18.250Z,9.42
2022-11-16T02:01:20.051Z,9.43
2022-11-16T02:02:21.749Z,9.43
2022-11-16T02:03:23.472Z,9.43
2022-11-16T02:04:25.222Z,9.43
2022-11-16T02:05:26.944Z,9.43
2022-11-16T02:06:28.654Z,9.44
2022-11-16T02:07:30.487Z,9.43
2022-11-16T02:08:32.656Z,9.44
2022-11-16T02:09:33.849Z,9.43
2022-11-16T02:10:35.582Z,9.44
2022-11-16T02:11:37.321Z,9.44
2022-11-16T02:12:39.062Z,9.44
2022-11-16T02:13:40.782Z,9.44
2022-11-16T02:14:42.520Z,9.45
2022-11-16T02:15:44.251Z,9.45
2022-11-16T02:16:45.982Z,9.45
2022-11-16T02:17:47.725Z,9.45
2022-11-16T02:18:49.451Z,9.45
2022-11-16T02:19:51.187Z,9.45
2022-11-16T02:20:52.919Z,9.45
2022-11-16T02:21:54.654Z,9.45
2022-11-16T02:22:56.400Z,9.45
2022-11-16T02:23:58.130Z,9.45
2022-11-16T02:24:59.871Z,9.46
2022-11-16T02:26:01.591Z,9.45
2022-11-16T02:27:03.320Z,9.45
2022-11-16T02:28:05.079Z,9.46
2022-11-16T02:29:06.789Z,9.46
2022-11-16T02:30:08.543Z,9.46
2022-11-16T02:31:10.261Z,9.46
2022-11-16T02:32:12.042Z,9.46
2022-11-16T02:33:13.774Z,9.46
2022-11-16T02:34:15.473Z,9.45
2022-11-16T02:35:17.202Z,9.46
2022-11-16T02:36:18.947Z,9.46
2022-11-16T02:37:20.673Z,9.46
2022-11-16T02:38:22.412Z,9.46
2022-11-16T02:39:24.141Z,9.45
2022-11-16T02:40:25.872Z,9.45
2022-11-16T02:41:27.617Z,9.46
2022-11-16T02:42:29.350Z,9.46
2022-11-16T02:43:31.092Z,9.45
2022-11-16T02:44:32.809Z,9.46
2022-11-16T02:45:34.538Z,9.46
2022-11-16T02:46:36.276Z,9.46
2022-11-16T02:47:38.004Z,9.46
2022-11-16T02:48:39.758Z,9.46
2022-11-16T02:49:41.473Z,9.46
2022-11-16T02:50:43.207Z,9.47
2022-11-16T02:51:44.937Z,9.48
2022-11-16T02:52:46.665Z,9.47
2022-11-16T02:53:48.413Z,9.47
2022-11-16T02:54:50.151Z,9.47
2022-11-16T02:55:51.876Z,9.48
2022-11-16T02:56:53.610Z,9.47
2022-11-16T02:57:55.359Z,9.48
2022-11-16T02:58:57.110Z,9.48
2022-11-16T02:59:58.807Z,9.48
2022-11-16T03:01:00.658Z,9.49
2022-11-16T03:02:02.282Z,9.49
2022-11-16T03:03:04.011Z,9.49
2022-11-16T03:04:05.779Z,9.49
2022-11-16T03:05:07.486Z,9.49
2022-11-16T03:06:09.202Z,9.48
2022-11-16T03:07:10.989Z,9.48
2022-11-16T03:08:12.698Z,9.48
2022-11-16T03:09:14.435Z,9.47
2022-11-16T03:10:16.149Z,9.48
2022-11-16T03:11:17.901Z,9.48
2022-11-16T03:12:19.615Z,9.48
2022-11-16T03:13:21.357Z,9.48
2022-11-16T03:14:23.104Z,9.47
2022-11-16T03:15:24.857Z,9.46
2022-11-16T03:16:26.564Z,9.46
2022-11-16T03:17:28.318Z,9.46
2022-11-16T03:18:30.059Z,9.46
2022-11-16T03:19:31.772Z,9.45
2022-11-16T03:20:33.495Z,9.45
2022-11-16T03:21:35.266Z,9.44
2022-11-16T03:22:36.964Z,9.45
2022-11-16T03:23:38.702Z,9.45
2022-11-16T03:24:40.443Z,9.45
2022-11-16T03:25:42.156Z,9.45
2022-11-16T03:26:43.912Z,9.45
2022-11-16T03:27:45.692Z,9.45
2022-11-16T03:28:47.373Z,9.45
2022-11-16T03:29:49.113Z,9.45
2022-11-16T03:30:50.879Z,9.45
2022-11-16T03:31:52.624Z,9.45
2022-11-16T03:32:54.310Z,9.45
2022-11-16T03:33:56.072Z,9.45
2022-11-16T03:34:57.821Z,9.45
2022-11-16T03:35:59.520Z,9.44
2022-11-16T03:37:01.289Z,9.45
2022-11-16T03:38:03.002Z,9.44
2022-11-16T03:39:04.723Z,9.44
2022-11-16T03:40:06.462Z,9.43
2022-11-16T03:41:08.186Z,9.43
2022-11-16T03:42:09.919Z,9.42
2022-11-16T03:43:11.777Z,9.42
2022-11-16T03:44:13.377Z,9.42
2022-11-16T03:45:15.134Z,9.41
2022-11-16T03:46:16.856Z,9.41
2022-11-16T03:47:18.584Z,9.4
2022-11-16T03:48:20.316Z,9.4
2022-11-16T03:49:22.122Z,9.39
2022-11-16T03:50:23.809Z,9.4
2022-11-16T03:51:25.548Z,9.4
2022-11-16T03:52:27.264Z,9.4
2022-11-16T03:53:28.994Z,9.4
2022-11-16T03:54:30.731Z,9.39
2022-11-16T03:55:32.617Z,9.38
2022-11-16T03:56:34.270Z,9.39
2022-11-16T03:57:35.928Z,9.39
2022-11-16T03:58:37.657Z,9.39
2022-11-16T03:59:39.406Z,9.38
2022-11-16T04:00:41.180Z,9.38
2022-11-16T04:01:44.866Z,9.38
2022-11-16T04:02:44.597Z,9.38
2022-11-16T04:03:46.330Z,9.38
2022-11-16T04:04:48.069Z,9.36
2022-11-16T04:05:49.807Z,9.37
2022-11-16T04:06:51.581Z,9.36
2022-11-16T04:07:53.263Z,9.35
2022-11-16T04:08:54.992Z,9.34
2022-11-16T04:09:56.727Z,9.34
2022-11-16T04:10:58.477Z,9.33
2022-11-16T04:12:00.212Z,9.34
2022-11-16T04:13:01.948Z,9.33
2022-11-16T04:14:08.039Z,9.32
2022-11-16T04:15:05.407Z,9.32
2022-11-16T04:16:07.141Z,9.33
2022-11-16T04:17:08.882Z,9.32
2022-11-16T04:18:10.598Z,9.32
2022-11-16T04:19:12.334Z,9.32
2022-11-16T04:20:14.065Z,9.33
2022-11-16T04:21:15.809Z,9.32
2022-11-16T04:22:17.516Z,9.32
2022-11-16T04:23:19.271Z,9.33
2022-11-16T04:24:20.982Z,9.32
2022-11-16T04:25:22.724Z,9.34
2022-11-16T04:26:24.502Z,9.33
2022-11-16T04:27:26.197Z,9.33
2022-11-16T04:28:27.926Z,9.34
2022-11-16T04:29:29.663Z,9.34
2022-11-16T04:30:31.403Z,9.34
2022-11-16T04:31:33.148Z,9.34
2022-11-16T04:32:34.872Z,9.34
2022-11-16T04:33:36.590Z,9.34
2022-11-16T04:34:38.333Z,9.34
2022-11-16T04:35:40.073Z,9.34
2022-11-16T04:36:41.866Z,9.35
2022-11-16T04:37:43.544Z,9.35
2022-11-16T04:38:45.270Z,9.35
2022-11-16T04:39:47.002Z,9.35
2022-11-16T04:40:48.736Z,9.35
2022-11-16T04:41:50.490Z,9.35
2022-11-16T04:42:52.194Z,9.35
2022-11-16T04:43:53.947Z,9.36
2022-11-16T04:44:55.673Z,9.36
2022-11-16T04:45:57.407Z,9.36
2022-11-16T04:46:59.146Z,9.37
2022-11-16T04:48:00.892Z,9.38
2022-11-16T04:49:02.597Z,9.38
2022-11-16T04:50:04.338Z,9.38
2022-11-16T04:51:06.076Z,9.39
2022-11-16T04:52:07.812Z,9.39
2022-11-16T04:53:09.550Z,9.39
2022-11-16T04:54:11.276Z,9.39
2022-11-16T04:55:13.002Z,9.4
2022-11-16T04:56:14.748Z,9.39
2022-11-16T04:57:16.526Z,9.39
2022-11-16T04:58:18.215Z,9.39
2022-11-16T04:59:19.956Z,9.39
2022-11-16T05:00:21.692Z,9.38
2022-11-16T05:01:23.454Z,9.38
2022-11-16T05:02:25.170Z,9.38
2022-11-16T05:03:26.899Z,9.38
2022-11-16T05:04:28.634Z,9.38
2022-11-16T05:05:30.380Z,9.38
2022-11-16T05:06:32.088Z,9.38
2022-11-16T05:07:33.943Z,9.37
2022-11-16T05:08:35.780Z,9.37
2022-11-16T05:09:37.317Z,9.37
2022-11-16T05:10:39.028Z,9.36
2022-11-16T05:11:40.769Z,9.37
2022-11-16T05:12:42.511Z,9.37
2022-11-16T05:13:44.224Z,9.37
2022-11-16T05:14:46.251Z,9.38
2022-11-16T05:15:47.700Z,9.37
2022-11-16T05:16:49.529Z,9.37
2022-11-16T05:18:14.785Z,9.38
2022-11-16T05:19:16.479Z,9.38
2022-11-16T05:20:18.225Z,9.38
2022-11-16T05:21:19.960Z,9.38
2022-11-16T05:22:21.693Z,9.38
2022-11-16T05:23:23.455Z,9.38
2022-11-16T05:24:25.183Z,9.39
2022-11-16T05:25:26.907Z,9.38
2022-11-16T05:26:28.663Z,9.38
2022-11-16T05:27:29.843Z,9.38
2022-11-16T05:28:32.504Z,9.37
2022-11-16T05:29:33.877Z,9.37
2022-11-16T05:31:01.177Z,9.37
2022-11-16T05:32:04.287Z,9.36
2022-11-16T05:33:04.624Z,9.36
2022-11-16T05:34:06.368Z,9.35
2022-11-16T05:35:08.111Z,9.36
2022-11-16T05:36:09.844Z,9.35
2022-11-16T05:37:11.556Z,9.35
2022-11-16T05:38:13.301Z,9.35
2022-11-16T05:39:15.027Z,9.34
2022-11-16T05:40:16.764Z,9.35
2022-11-16T05:41:18.503Z,9.34
2022-11-16T05:42:20.233Z,9.35
2022-11-16T05:43:21.978Z,9.34
2022-11-16T05:44:23.706Z,9.34
2022-11-16T05:45:25.424Z,9.34
2022-11-16T05:46:27.164Z,9.35
2022-11-16T05:47:28.912Z,9.34
2022-11-16T05:48:30.724Z,9.33
2022-11-16T05:49:32.382Z,9.34
2022-11-16T05:50:36.342Z,9.34
2022-11-16T05:51:35.861Z,9.35
2022-11-16T05:52:37.570Z,9.35
2022-11-16T05:53:39.306Z,9.36
2022-11-16T05:54:41.073Z,9.35
2022-11-16T05:55:42.777Z,9.36
2022-11-16T05:56:44.513Z,9.35
2022-11-16T05:57:46.249Z,9.35
2022-11-16T05:58:47.989Z,9.35
2022-11-16T05:59:49.744Z,9.35
2022-11-16T06:00:51.438Z,9.35
2022-11-16T06:01:53.182Z,9.35
2022-11-16T06:02:54.945Z,9.34
2022-11-16T06:03:56.677Z,9.34
2022-11-16T06:04:58.394Z,9.32
2022-11-16T06:06:00.116Z,9.32
2022-11-16T06:07:01.871Z,9.32
2022-11-16T06:08:03.572Z,9.31
2022-11-16T06:09:05.316Z,9.3
2022-11-16T06:10:07.082Z,9.29
2022-11-16T06:11:08.780Z,9.28
2022-11-16T06:12:10.524Z,9.27
2022-11-16T06:13:12.255Z,9.26
2022-11-16T06:14:13.981Z,9.24
2022-11-16T06:15:15.725Z,9.23
2022-11-16T06:16:17.460Z,9.21
2022-11-16T06:17:19.196Z,9.19
2022-11-16T06:18:20.929Z,9.17
2022-11-16T06:19:22.663Z,9.15
2022-11-16T06:20:24.412Z,9.14
2022-11-16T06:21:26.123Z,9.12
2022-11-16T06:22:27.943Z,9.09
2022-11-16T06:23:29.605Z,9.06
2022-11-16T06:24:31.340Z,9.03
2022-11-16T06:25:33.092Z,9
2022-11-16T06:26:34.803Z,8.96
2022-11-16T06:27:36.536Z,8.92
2022-11-16T06:28:38.283Z,8.88
2022-11-16T06:29:40.006Z,8.83
2022-11-16T06:30:41.748Z,8.78
2022-11-16T06:31:43.475Z,8.73
2022-11-16T06:32:45.210Z,8.68
2022-11-16T06:33:46.943Z,8.64
2022-11-16T06:34:48.686Z,8.6
2022-11-16T06:35:50.410Z,8.55
2022-11-16T06:36:52.148Z,8.5
2022-11-16T06:37:53.875Z,8.47
2022-11-16T06:38:55.626Z,8.43
2022-11-16T06:39:57.346Z,8.41
2022-11-16T06:40:59.086Z,8.39
2022-11-16T06:42:00.820Z,8.36
2022-11-16T06:43:02.556Z,8.35
2022-11-16T06:44:04.279Z,8.34
2022-11-16T06:45:06.023Z,8.33
2022-11-16T06:46:07.755Z,8.31
2022-11-16T06:47:09.495Z,8.3
2022-11-16T06:48:11.220Z,8.29
2022-11-16T06:49:12.954Z,8.28
2022-11-16T06:50:15.232Z,8.28
2022-11-16T06:51:16.429Z,8.28
2022-11-16T06:52:18.165Z,8.26
2022-11-16T06:53:23.466Z,8.26
2022-11-16T06:54:21.632Z,8.25
2022-11-16T06:55:23.383Z,8.24
2022-11-16T06:56:25.090Z,8.23
2022-11-16T06:57:26.829Z,8.23
2022-11-16T06:58:28.561Z,8.22
2022-11-16T06:59:30.294Z,8.21
2022-11-16T07:00:32.013Z,8.21
2022-11-16T07:01:33.852Z,8.2
2022-11-16T07:02:35.492Z,8.19
2022-11-16T07:03:37.229Z,8.18
2022-11-16T07:04:38.960Z,8.16
2022-11-16T07:05:40.714Z,8.16
2022-11-16T07:06:42.469Z,8.17
2022-11-16T07:07:44.160Z,8.16
2022-11-16T07:08:45.891Z,8.15
2022-11-16T07:09:47.639Z,8.15
2022-11-16T07:10:49.387Z,8.15
2022-11-16T07:11:51.117Z,8.14
2022-11-16T07:12:52.830Z,8.13
2022-11-16T07:13:54.559Z,8.12
2022-11-16T07:14:56.301Z,8.11
2022-11-16T07:15:58.048Z,8.11
2022-11-16T07:17:01.872Z,8.09
2022-11-16T07:18:01.503Z,8.08
2022-11-16T07:19:03.225Z,8.08
2022-11-16T07:20:04.964Z,8.1
2022-11-16T07:21:06.749Z,8.13
2022-11-16T07:22:08.446Z,8.12
2022-11-16T07:23:13.816Z,8.12
2022-11-16T07:24:11.899Z,8.12
2022-11-16T07:25:13.650Z,8.16
2022-11-16T07:26:15.385Z,8.2
2022-11-16T07:27:17.118Z,8.24
2022-11-16T07:28:18.841Z,8.29
2022-11-16T07:29:20.587Z,8.34
2022-11-16T07:30:22.331Z,8.39
2022-11-16T07:31:24.049Z,8.45
2022-11-16T07:32:25.803Z,8.51
2022-11-16T07:33:27.519Z,8.57
2022-11-16T07:34:29.256Z,8.61
2022-11-16T07:35:31.002Z,8.66
2022-11-16T07:36:32.737Z,8.69
2022-11-16T07:37:34.466Z,8.73
2022-11-16T07:38:37.236Z,8.77
2022-11-16T07:39:37.930Z,8.8
2022-11-16T07:40:39.662Z,8.84
2022-11-16T07:41:41.403Z,8.87
2022-11-16T07:42:43.139Z,8.9
2022-11-16T07:43:49.938Z,8.94
2022-11-16T07:44:48.073Z,8.96
2022-11-16T07:45:48.343Z,8.97
2022-11-16T07:46:50.091Z,8.99
2022-11-16T07:47:51.800Z,8.98
2022-11-16T07:48:53.530Z,8.97
2022-11-16T07:49:55.262Z,8.95
2022-11-16T07:50:56.988Z,8.93
2022-11-16T07:51:58.722Z,8.91
2022-11-16T07:53:00.483Z,8.91
2022-11-16T07:54:02.200Z,8.91
2022-11-16T07:55:03.931Z,8.89
2022-11-16T07:56:05.667Z,8.88
2022-11-16T07:57:07.418Z,8.86
2022-11-16T07:58:09.142Z,8.82
2022-11-16T07:59:10.930Z,8.78
2022-11-16T08:00:12.947Z,8.75
2022-11-16T08:01:14.396Z,8.7
2022-11-16T08:02:16.167Z,8.66
2022-11-16T08:03:23.328Z,8.61
2022-11-16T08:04:19.550Z,8.57
2022-11-16T08:05:21.303Z,8.52
2022-11-16T08:06:23.006Z,8.47
2022-11-16T08:07:24.847Z,8.41
2022-11-16T08:08:26.557Z,8.37
2022-11-16T08:09:28.212Z,8.33
2022-11-16T08:10:30.090Z,8.26
2022-11-16T08:11:31.678Z,8.23
2022-11-16T08:12:33.446Z,8.2
2022-11-16T08:13:35.146Z,8.14
2022-11-16T08:14:36.876Z,8.1
2022-11-16T08:15:38.615Z,8.08
2022-11-16T08:16:40.345Z,8.05
2022-11-16T08:18:17.769Z,8.01
2022-11-16T08:19:19.510Z,7.99
2022-11-16T08:20:21.233Z,7.95
2022-11-16T08:21:22.960Z,7.94
2022-11-16T08:22:24.705Z,7.92
2022-11-16T08:23:26.438Z,7.92
2022-11-16T08:24:28.191Z,7.93
2022-11-16T08:25:29.906Z,7.95
2022-11-16T08:26:31.631Z,7.98
2022-11-16T08:27:33.371Z,8.03
2022-11-16T08:28:35.463Z,8.07
2022-11-16T08:29:36.852Z,8.13
2022-11-16T08:30:38.567Z,8.19
2022-11-16T08:31:40.308Z,8.22
2022-11-16T08:32:42.066Z,8.23
2022-11-16T08:33:43.777Z,8.23
2022-11-16T08:34:45.513Z,8.22
2022-11-16T08:35:47.252Z,8.21
2022-11-16T08:36:49.059Z,8.19
2022-11-16T08:37:50.705Z,8.17
2022-11-16T08:38:52.450Z,8.15
2022-11-16T08:39:54.183Z,8.13
2022-11-16T08:40:55.932Z,8.11
2022-11-16T08:41:57.641Z,8.11
2022-11-16T08:42:59.410Z,8.1
2022-11-16T08:44:01.360Z,8.09
2022-11-16T08:45:02.885Z,8.07
2022-11-16T08:46:04.597Z,8.06
2022-11-16T08:47:06.314Z,8.04
2022-11-16T08:48:08.063Z,8.03
2022-11-16T08:49:09.792Z,8.04
2022-11-16T08:50:11.557Z,8.04
2022-11-16T08:51:18.143Z,8.03
2022-11-16T08:52:14.982Z,8.03
2022-11-16T08:53:16.725Z,8.04
2022-11-16T08:54:18.475Z,8.03
2022-11-16T08:55:20.231Z,8.03
2022-11-16T08:56:21.937Z,8.08
2022-11-16T08:57:23.668Z,8.11
2022-11-16T08:58:25.387Z,8.15
2022-11-16T08:59:27.126Z,8.17
2022-11-16T09:00:28.891Z,8.22
2022-11-16T09:01:30.662Z,8.24
2022-11-16T09:02:32.329Z,8.26
2022-11-16T09:03:34.060Z,8.28
2022-11-16T09:04:37.182Z,8.3
2022-11-16T09:05:37.548Z,8.3
2022-11-16T09:06:39.267Z,8.33
2022-11-16T09:07:41.066Z,8.35
2022-11-16T09:08:42.743Z,8.37
2022-11-16T09:09:44.472Z,8.4
2022-11-16T09:10:46.217Z,8.44
2022-11-16T09:11:47.927Z,8.47
2022-11-16T09:12:49.718Z,8.51
2022-11-16T09:13:51.396Z,8.56
2022-11-16T09:14:53.153Z,8.59
2022-11-16T09:15:54.886Z,8.61
2022-11-16T09:16:56.468Z,8.63
2022-11-16T09:17:58.193Z,8.63
2022-11-16T09:18:59.931Z,8.62
2022-11-16T09:20:01.678Z,8.61
2022-11-16T09:21:03.420Z,8.61
2022-11-16T09:22:05.136Z,8.58
2022-11-16T09:23:06.869Z,8.55
2022-11-16T09:24:08.608Z,8.52
2022-11-16T09:25:10.346Z,8.5
2022-11-16T09:26:12.088Z,8.47
2022-11-16T09:27:13.808Z,8.45
2022-11-16T09:28:15.534Z,8.43
2022-11-16T09:29:17.281Z,8.42
2022-11-16T09:30:19.018Z,8.4
2022-11-16T09:31:23.302Z,8.39
2022-11-16T09:32:22.481Z,8.39
2022-11-16T09:33:24.224Z,8.39
2022-11-16T09:34:25.954Z,8.41
2022-11-16T09:35:27.682Z,8.43
2022-11-16T09:36:29.415Z,8.46
2022-11-16T09:37:31.263Z,8.47
2022-11-16T09:38:47.538Z,8.48
2022-11-16T09:39:34.614Z,8.5
2022-11-16T09:40:36.379Z,8.52
2022-11-16T09:41:38.095Z,8.55
2022-11-16T09:42:39.817Z,8.59
2022-11-16T09:43:45.817Z,8.63
2022-11-16T09:44:43.314Z,8.67
2022-11-16T09:45:45.035Z,8.72
2022-11-16T09:46:46.776Z,8.78
2022-11-16T09:47:48.495Z,8.88
2022-11-16T09:48:50.227Z,8.97
2022-11-16T09:49:51.963Z,9.05
2022-11-16T09:50:53.704Z,9.1
2022-11-16T09:51:55.442Z,9.17
2022-11-16T09:52:57.172Z,9.25
2022-11-16T09:53:58.899Z,9.31
2022-11-16T09:55:00.644Z,9.41
2022-11-16T09:56:02.365Z,9.51
2022-11-16T09:57:08.029Z,9.62
2022-11-16T09:58:05.884Z,9.68
2022-11-16T09:59:07.576Z,9.75
2022-11-16T10:00:09.327Z,9.82
2022-11-16T10:01:11.141Z,9.87
2022-11-16T10:02:12.774Z,9.94
2022-11-16T10:03:14.511Z,9.96
2022-11-16T10:04:16.277Z,9.98
2022-11-16T10:05:17.973Z,10.01
2022-11-16T10:06:19.704Z,10.03
2022-11-16T10:07:21.521Z,10.04
2022-11-16T10:08:23.184Z,10.03
2022-11-16T10:09:24.903Z,10.01
2022-11-16T10:10:26.645Z,10.01
2022-11-16T10:11:28.414Z,9.99
2022-11-16T10:12:30.124Z,9.96
2022-11-16T10:13:32.157Z,9.94
2022-11-16T10:14:33.609Z,9.92
2022-11-16T10:15:35.316Z,9.89
2022-11-16T10:16:37.058Z,9.87
2022-11-16T10:17:38.799Z,9.83
2022-11-16T10:18:40.527Z,9.82
2022-11-16T10:19:42.253Z,9.79
2022-11-16T10:20:43.988Z,9.78
2022-11-16T10:21:45.734Z,9.77
2022-11-16T10:22:47.467Z,9.76
2022-11-16T10:23:49.205Z,9.74
2022-11-16T10:24:50.926Z,9.73
2022-11-16T10:25:52.654Z,9.73
2022-11-16T10:26:54.391Z,9.73
2022-11-16T10:27:56.140Z,9.72
2022-11-16T10:28:57.885Z,9.74
2022-11-16T10:29:59.588Z,9.76
2022-11-16T10:31:01.354Z,9.82
2022-11-16T10:32:03.072Z,9.85
2022-11-16T10:33:09.821Z,9.9
2022-11-16T10:34:06.520Z,9.95
2022-11-16T10:35:08.262Z,10.11
2022-11-16T10:36:09.993Z,10.17
2022-11-16T10:37:11.738Z,10.3
2022-11-16T10:38:13.501Z,10.37
2022-11-16T10:39:15.201Z,10.39
2022-11-16T10:40:16.953Z,10.42
2022-11-16T10:41:18.678Z,10.42
2022-11-16T10:42:20.428Z,10.41
2022-11-16T10:43:22.145Z,10.41
2022-11-16T10:44:23.878Z,10.37
2022-11-16T10:45:25.613Z,10.34
2022-11-16T10:46:27.355Z,10.29
2022-11-16T10:47:33.550Z,10.25
2022-11-16T10:48:30.843Z,10.2
2022-11-16T10:49:32.576Z,10.18
2022-11-16T10:50:34.323Z,10.13
2022-11-16T10:51:36.006Z,10.08
2022-11-16T10:52:37.766Z,10.06
2022-11-16T10:53:39.483Z,10.03
2022-11-16T10:54:44.271Z,10.01
2022-11-16T10:55:42.956Z,9.97
2022-11-16T10:56:44.682Z,9.95
2022-11-16T10:57:46.407Z,9.92
2022-11-16T10:58:48.159Z,9.9
2022-11-16T10:59:49.897Z,9.87
2022-11-16T11:00:51.776Z,9.85
2022-11-16T11:01:53.413Z,9.8
2022-11-16T11:02:55.170Z,9.77
2022-11-16T11:03:56.937Z,9.75
2022-11-16T11:04:58.554Z,9.73
2022-11-16T11:06:00.295Z,9.71
2022-11-16T11:07:02.106Z,9.7
2022-11-16T11:08:03.760Z,9.68
2022-11-16T11:09:05.525Z,9.68
2022-11-16T11:10:07.221Z,9.66
2022-11-16T11:11:09.078Z,9.66
2022-11-16T11:12:10.703Z,9.66
2022-11-16T11:13:12.435Z,9.65
2022-11-16T11:14:14.186Z,9.65
2022-11-16T11:15:15.891Z,9.65
2022-11-16T11:16:17.645Z,9.65
2022-11-16T11:17:19.367Z,9.66
2022-11-16T11:18:21.116Z,9.66
2022-11-16T11:19:22.855Z,9.66
2022-11-16T11:20:24.576Z,9.67
2022-11-16T11:21:26.320Z,9.66
2022-11-16T11:22:28.047Z,9.66
2022-11-16T11:23:29.795Z,9.65
2022-11-16T11:24:45.723Z,9.65
2022-11-16T11:25:33.245Z,9.64
2022-11-16T11:26:36.954Z,9.64
2022-11-16T11:27:36.733Z,9.63
2022-11-16T11:28:38.449Z,9.63
2022-11-16T11:29:40.190Z,9.64
2022-11-16T11:30:41.908Z,9.64
2022-11-16T11:31:43.647Z,9.64
2022-11-16T11:32:45.377Z,9.64
2022-11-16T11:33:47.124Z,9.65
2022-11-16T11:34:48.864Z,9.65
2022-11-16T11:35:50.579Z,9.66
2022-11-16T11:36:52.313Z,9.66
2022-11-16T11:37:54.063Z,9.67
2022-11-16T11:38:55.896Z,9.71
2022-11-16T11:39:57.527Z,9.77
2022-11-16T11:40:59.275Z,9.85
2022-11-16T11:42:00.993Z,9.88
2022-11-16T11:43:02.729Z,9.93
2022-11-16T11:44:04.455Z,9.97
2022-11-16T11:45:06.203Z,10.02
2022-11-16T11:46:07.920Z,10.07
2022-11-16T11:47:55.789Z,10.13
2022-11-16T11:48:11.391Z,10.18
2022-11-16T11:49:13.123Z,10.22
2022-11-16T11:50:14.990Z,10.26
2022-11-16T11:51:16.610Z,10.3
2022-11-16T11:52:18.323Z,10.33
2022-11-16T11:53:20.083Z,10.36
2022-11-16T11:54:21.813Z,10.38
2022-11-16T11:55:23.549Z,10.39
2022-11-16T11:56:25.283Z,10.4
2022-11-16T11:57:27.032Z,10.42
2022-11-16T11:58:28.741Z,10.42
2022-11-16T11:59:30.475Z,10.42
2022-11-16T12:00:32.242Z,10.43
2022-11-16T12:01:33.950Z,10.43
2022-11-16T12:02:35.747Z,10.44
2022-11-16T12:03:37.565Z,10.44
2022-11-16T12:04:39.157Z,10.46
2022-11-16T12:05:40.895Z,10.47
2022-11-16T12:06:44.183Z,10.5
2022-11-16T12:07:44.359Z,10.53
2022-11-16T12:08:46.085Z,10.57
2022-11-16T12:09:47.819Z,10.61
2022-11-16T12:10:49.571Z,10.68
2022-11-16T12:11:51.290Z,10.77
2022-11-16T12:12:53.034Z,10.89
2022-11-16T12:13:54.756Z,10.97
2022-11-16T12:14:56.493Z,11.06
2022-11-16T12:15:58.234Z,11.16
2022-11-16T12:16:59.966Z,11.24
2022-11-16T12:18:01.689Z,11.32
2022-11-16T12:19:03.428Z,11.37
2022-11-16T12:20:05.244Z,11.4
2022-11-16T12:21:06.907Z,11.47
2022-11-16T12:22:08.644Z,11.53
2022-11-16T12:23:10.372Z,11.58
2022-11-16T12:24:12.106Z,11.63
2022-11-16T12:25:13.862Z,11.68
2022-11-16T12:26:15.595Z,11.74
2022-11-16T12:27:17.304Z,11.77
2022-11-16T12:28:19.057Z,11.82
2022-11-16T12:29:20.782Z,11.83
2022-11-16T12:30:22.644Z,11.81
2022-11-16T12:31:24.266Z,11.76
2022-11-16T12:32:25.983Z,11.75
2022-11-16T12:33:27.713Z,11.71
2022-11-16T12:34:29.455Z,11.68
2022-11-16T12:35:31.187Z,11.67
2022-11-16T12:36:32.930Z,11.6
2022-11-16T12:37:34.658Z,11.59
2022-11-16T12:38:36.448Z,11.54
2022-11-16T12:39:38.127Z,11.49
2022-11-16T12:40:39.863Z,11.46
2022-11-16T12:41:41.606Z,11.41
2022-11-16T12:42:43.327Z,11.38
2022-11-16T12:43:45.059Z,11.34
2022-11-16T12:44:46.807Z,11.33
2022-11-16T12:45:48.533Z,11.33
2022-11-16T12:46:50.271Z,11.34
2022-11-16T12:47:51.986Z,11.38
2022-11-16T12:48:53.740Z,11.44
2022-11-16T12:49:55.485Z,11.51
2022-11-16T12:50:57.221Z,11.59
2022-11-16T12:51:58.985Z,11.67
2022-11-16T12:53:00.682Z,11.74
2022-11-16T12:54:02.417Z,11.8
2022-11-16T12:55:25.434Z,11.84
2022-11-16T12:56:05.885Z,11.86
2022-11-16T12:57:07.635Z,11.85
2022-11-16T12:58:09.346Z,11.84
2022-11-16T12:59:11.087Z,11.83
2022-11-16T13:00:12.837Z,11.79
2022-11-16T13:01:14.615Z,11.76
2022-11-16T13:02:16.313Z,11.74
2022-11-16T13:03:18.010Z,11.71
2022-11-16T13:04:19.766Z,11.65
2022-11-16T13:05:21.486Z,11.63
2022-11-16T13:06:23.211Z,11.61
2022-11-16T13:07:25.058Z,11.58
2022-11-16T13:08:26.693Z,11.56
2022-11-16T13:09:28.408Z,11.56
2022-11-16T13:10:30.147Z,11.53
2022-11-16T13:11:31.893Z,11.47
2022-11-16T13:12:33.647Z,11.44
2022-11-16T13:13:36.653Z,11.37
2022-11-16T13:14:37.099Z,11.29
2022-11-16T13:15:38.829Z,11.25
2022-11-16T13:16:40.564Z,11.17
2022-11-16T13:17:42.294Z,11.13
2022-11-16T13:18:44.029Z,11.05
2022-11-16T13:19:45.771Z,11.01
2022-11-16T13:20:47.491Z,10.96
2022-11-16T13:21:49.226Z,10.91
2022-11-16T13:22:50.969Z,10.85
2022-11-16T13:23:52.691Z,10.8
2022-11-16T13:24:54.433Z,10.72
2022-11-16T13:25:56.165Z,10.68
2022-11-16T13:26:57.903Z,10.64
2022-11-16T13:27:59.641Z,10.6
2022-11-16T13:29:01.363Z,10.59
2022-11-16T13:30:03.118Z,10.56
2022-11-16T13:31:04.867Z,10.55
2022-11-16T13:32:06.570Z,10.54
2022-11-16T13:33:08.308Z,10.54
2022-11-16T13:34:10.042Z,10.54
2022-11-16T13:35:11.771Z,10.52
2022-11-16T13:36:13.519Z,10.53
2022-11-16T13:37:15.250Z,10.53
2022-11-16T13:38:16.983Z,10.52
2022-11-16T13:39:22.235Z,10.51
2022-11-16T13:40:20.443Z,10.5